createdAt,value
2023-05-10T00:13:55.479Z,16.2
2023-05-10T00:29:05.142Z,16.1
2023-05-10T00:44:15.480Z,16
2023-05-10T00:59:24.980Z,15.9
2023-05-10T01:14:34.623Z,15.7
2023-05-10T01:29:44.908Z,15.5
2023-05-10T01:44:54.575Z,15.4
2023-05-10T02:00:04.463Z,15.4
2023-05-10T02:15:14.620Z,15.3
2023-05-10T02:30:24.308Z,15.2
2023-05-10T02:45:33.805Z,15.1
2023-05-10T03:00:43.389Z,15.1
2023-05-10T03:15:53.039Z,15
2023-05-10T03:31:03.012Z,14.9
2023-05-10T03:46:13.129Z,14.8
2023-05-10T04:01:23.208Z,14.7
2023-05-10T04:16:32.834Z,14.7
2023-05-10T04:31:42.655Z,14.7
2023-05-10T04:46:52.624Z,14.7
2023-05-10T05:02:02.566Z,14.6
2023-05-10T05:17:12.853Z,14.5
2023-05-10T05:32:22.250Z,14.1
2023-05-10T05:47:31.978Z,14
2023-05-10T06:02:42.324Z,14
2023-05-10T06:17:52.864Z,14.1
2023-05-10T06:33:03.279Z,14.1
2023-05-10T06:48:13.870Z,14.3
2023-05-10T07:03:23.976Z,14.4
2023-05-10T07:18:34.522Z,14.5
2023-05-10T07:33:44.571Z,14.4
2023-05-10T07:48:54.645Z,14.4
2023-05-10T08:04:04.404Z,14.5
2023-05-10T08:19:14.979Z,14.6
2023-05-10T08:34:25.295Z,14.7
2023-05-10T08:49:36.449Z,14.8
2023-05-10T09:04:46.035Z,14.9
2023-05-10T09:19:56.437Z,14.7
2023-05-10T09:35:06.171Z,14.9
2023-05-10T09:50:15.669Z,14.9
2023-05-10T10:05:29.076Z,15
2023-05-10T10:20:40.132Z,15.1
2023-05-10T10:35:50.571Z,15.5
2023-05-10T10:51:00.341Z,15.8
2023-05-10T11:06:10.642Z,16.1
2023-05-10T11:21:20.075Z,16.4
2023-05-10T11:36:29.842Z,16.9
2023-05-10T11:51:40.244Z,17.5
2023-05-10T12:06:50.536Z,18.2
2023-05-10T12:22:03.091Z,19.4
2023-05-10T12:37:12.823Z,19
2023-05-10T12:52:22.171Z,18.7
2023-05-10T13:07:31.853Z,18.6
2023-05-10T13:22:41.308Z,18
2023-05-10T13:37:50.762Z,17.7
2023-05-10T13:53:00.451Z,17.6
2023-05-10T14:08:09.842Z,17.5
2023-05-10T14:23:19.590Z,17.7
2023-05-10T14:38:29.836Z,18.6
2023-05-10T14:53:40.320Z,19.4
2023-05-10T15:08:50.408Z,19.3
2023-05-10T15:23:59.823Z,19.4
2023-05-10T15:39:10.309Z,19
2023-05-10T15:54:20.277Z,18.6
2023-05-10T16:09:29.844Z,18.4
2023-05-10T16:24:39.885Z,18.3
2023-05-10T16:39:49.498Z,18.2
2023-05-10T16:54:59.461Z,18
2023-05-10T17:10:09.509Z,17.8
2023-05-10T17:25:19.710Z,17.5
2023-05-10T17:40:29.755Z,17.2
2023-05-10T17:55:39.726Z,17
2023-05-10T18:10:49.121Z,16.8
2023-05-10T18:25:58.639Z,16.6
2023-05-10T18:41:07.423Z,16.5
2023-05-10T18:56:16.943Z,16.4
2023-05-10T19:11:30.217Z,16.3
2023-05-10T19:26:40.096Z,16.2
2023-05-10T19:41:49.418Z,16.1
2023-05-10T19:57:00.244Z,16
2023-05-10T20:12:09.658Z,16
2023-05-10T20:27:19.175Z,15.9
2023-05-10T20:42:30.006Z,15.8
2023-05-10T20:57:39.253Z,15.7
2023-05-10T21:12:49.138Z,15.7
2023-05-10T21:27:59.000Z,15.7
2023-05-10T21:43:08.628Z,15.7
2023-05-10T21:58:18.445Z,15.6
2023-05-10T22:13:29.165Z,15.6
2023-05-10T22:28:39.187Z,15.5
2023-05-10T22:43:48.577Z,15.4
2023-05-10T22:58:58.786Z,15.4
2023-05-10T23:14:08.608Z,15.3
2023-05-10T23:29:18.409Z,15.3
2023-05-10T23:44:30.593Z,15.2
2023-05-10T23:59:39.918Z,15.1
